Time,TemperatureF,DewpointF,PressureIn,WindDirection,WindDirectionDegrees,WindSpeedMPH,WindSpeedGustMPH,Humidity,HourlyPrecipIn,Conditions,Clouds,dailyrainin,SoftwareType,DateUTC
2013-05-11 00:00:00,61.3,53.0,28.88,NNE,30,0.0,0.0,74,0.00,,CLR,0.00,VWS V14.01,2013-05-11 05:00:00,
2013-05-11 00:15:00,61.3,53.0,28.88,NNE,31,0.0,0.0,74,0.00,,CLR,0.00,VWS V14.01,2013-05-11 05:15:00,
2013-05-11 00:30:00,61.3,53.0,28.88,NNE,31,0.0,0.0,74,0.00,,CLR,0.00,VWS V14.01,2013-05-11 05:30:00,
2013-05-11 00:45:00,61.3,53.0,28.88,NNE,30,0.0,0.0,74,0.00,,CLR,0.00,VWS V14.01,2013-05-11 05:45:00,
2013-05-11 01:00:00,61.3,53.0,28.88,NNE,30,0.0,0.0,74,0.00,,CLR,0.00,VWS V14.01,2013-05-11 06:00:00,
2013-05-11 01:15:00,61.3,53.0,28.88,NNE,30,0.0,0.0,74,0.00,,CLR,0.00,VWS V14.01,2013-05-11 06:15:00,
2013-05-11 01:30:00,61.3,53.0,28.88,NNE,30,0.0,0.0,74,0.00,,CLR,0.00,VWS V14.01,2013-05-11 06:30:00,
2013-05-11 01:45:00,61.3,53.0,28.88,NNE,31,0.0,0.0,74,0.00,,CLR,0.00,VWS V14.01,2013-05-11 06:45:00,
2013-05-11 02:00:00,61.3,53.0,28.88,NNE,30,0.0,0.0,74,0.00,,CLR,0.00,VWS V14.01,2013-05-11 07:00:00,
2013-05-11 02:15:00,61.3,53.0,28.88,NNE,30,0.0,0.0,74,0.00,,CLR,0.00,VWS V14.01,2013-05-11 07:15:00,
2013-05-11 02:30:00,61.3,53.0,28.88,NNE,30,0.0,0.0,74,0.00,,CLR,0.00,VWS V14.01,2013-05-11 07:30:00,
2013-05-11 02:45:00,61.3,53.0,28.88,ENE,74,0.0,12.1,74,0.00,,CLR,0.00,VWS V14.01,2013-05-11 07:45:00,
2013-05-11 03:00:00,61.3,53.0,28.91,ENE,75,9.4,24.8,74,0.00,,CLR,0.00,VWS V14.01,2013-05-11 08:00:00,
2013-05-11 03:15:00,61.3,53.0,28.91,North,357,0.0,26.8,74,0.00,,SCT090,0.00,VWS V14.01,2013-05-11 08:15:00,
2013-05-11 03:30:00,61.3,53.0,28.91,North,357,18.1,36.2,74,0.00,,SCT090,0.00,VWS V14.01,2013-05-11 08:30:00,
2013-05-11 03:45:00,61.3,53.0,28.91,NE,36,22.1,51.7,74,0.00,,SCT090,0.00,VWS V14.01,2013-05-11 08:45:00,
2013-05-11 04:00:00,61.3,53.0,28.94,East,88,30.9,38.9,74,0.00,,SCT090,0.00,VWS V14.01,2013-05-11 09:00:00,
2013-05-11 04:15:00,61.3,53.0,28.94,SSE,158,20.8,33.6,74,0.00,,CLR,0.00,VWS V14.01,2013-05-11 09:15:00,
2013-05-11 04:30:00,61.3,53.0,28.94,NE,55,15.4,33.6,74,0.00,,CLR,0.00,VWS V14.01,2013-05-11 09:30:00,
2013-05-11 04:45:00,61.3,53.0,28.97,ENE,63,13.4,36.2,74,0.00,,CLR,0.00,VWS V14.01,2013-05-11 09:45:00,
2013-05-11 05:00:00,61.3,53.0,28.97,ENE,64,14.1,34.9,74,0.00,,CLR,0.00,VWS V14.01,2013-05-11 10:00:00,
2013-05-11 05:15:00,61.3,53.0,28.97,NE,52,8.1,28.2,74,0.00,,CLR,0.00,VWS V14.01,2013-05-11 10:15:00,
2013-05-11 05:30:00,61.3,53.0,28.97,NE,55,0.0,28.2,74,0.00,,CLR,0.00,VWS V14.01,2013-05-11 10:30:00,
2013-05-11 05:45:00,61.3,53.0,29.00,East,84,0.0,33.6,74,0.00,,CLR,0.00,VWS V14.01,2013-05-11 10:45:00,
2013-05-11 06:00:00,61.3,53.0,29.00,NE,49,12.1,26.2,74,0.00,,CLR,0.00,VWS V14.01,2013-05-11 11:00:00,
2013-05-11 06:15:00,61.3,53.0,29.00,NE,48,0.0,22.1,74,0.00,,FEW250,0.00,VWS V14.01,2013-05-11 11:15:00,
2013-05-11 06:30:00,61.3,53.0,29.00,NE,47,12.1,24.8,74,0.00,,FEW250,0.00,VWS V14.01,2013-05-11 11:30:00,
2013-05-11 06:45:00,61.3,53.0,29.03,NE,56,18.1,20.8,74,0.00,,FEW250,0.00,VWS V14.01,2013-05-11 11:45:00,
2013-05-11 07:00:00,61.3,53.0,29.03,ENE,60,12.1,26.2,74,0.00,,FEW250,0.00,VWS V14.01,2013-05-11 12:00:00,
2013-05-11 07:15:00,61.3,53.0,29.03,ENE,62,9.4,24.8,74,0.00,,SCT250,0.00,VWS V14.01,2013-05-11 12:15:00,
2013-05-11 07:30:00,61.3,53.0,29.03,NNE,20,12.1,23.5,74,0.00,,SCT250,0.00,VWS V14.01,2013-05-11 12:30:00,
2013-05-11 07:45:00,61.3,53.0,29.06,North,357,8.1,22.1,74,0.00,,SCT250,0.00,VWS V14.01,2013-05-11 12:45:00,
2013-05-11 08:00:00,61.3,53.0,29.06,ENE,77,9.4,19.5,74,0.00,,SCT250,0.00,VWS V14.01,2013-05-11 13:00:00,
2013-05-11 08:15:00,61.3,53.0,29.06,NNE,33,19.5,30.9,74,0.00,,FEW250,0.00,VWS V14.01,2013-05-11 13:15:00,
2013-05-11 08:30:00,61.3,53.0,29.06,ENE,74,0.0,26.2,74,0.00,,FEW250,0.00,VWS V14.01,2013-05-11 13:30:00,
2013-05-11 08:45:00,61.3,53.0,29.06,East,95,13.4,26.2,74,0.00,,FEW250,0.00,VWS V14.01,2013-05-11 13:45:00,
2013-05-11 09:00:00,61.3,53.0,29.09,North,353,20.8,26.8,74,0.00,,FEW250,0.00,VWS V14.01,2013-05-11 14:00:00,
2013-05-11 09:15:00,61.3,53.0,29.09,East,87,16.8,37.6,74,0.00,,FEW250,0.00,VWS V14.01,2013-05-11 14:15:00,
2013-05-11 09:30:00,61.3,53.0,29.09,ENE,72,16.8,32.2,74,0.00,,FEW250,0.00,VWS V14.01,2013-05-11 14:30:00,
2013-05-11 09:45:00,61.3,53.0,29.09,ENE,62,26.2,26.8,74,0.00,,FEW250,0.00,VWS V14.01,2013-05-11 14:45:00,
2013-05-11 10:00:00,61.3,53.0,29.09,NE,46,26.2,34.9,74,0.00,,FEW250,0.00,VWS V14.01,2013-05-11 15:00:00,
2013-05-11 10:15:00,61.3,53.0,29.09,North,353,8.1,43.6,74,0.00,,FEW250,0.00,VWS V14.01,2013-05-11 15:15:00,
2013-05-11 10:30:00,61.3,53.0,29.09,ENE,73,30.9,34.9,74,0.00,,FEW250,0.00,VWS V14.01,2013-05-11 15:30:00,
2013-05-11 10:45:00,61.3,53.0,29.09,South,178,20.8,38.9,74,0.00,,FEW250,0.00,VWS V14.01,2013-05-11 15:45:00,
2013-05-11 11:00:00,61.3,53.0,29.09,ENE,59,26.2,43.6,74,0.00,,FEW250,0.00,VWS V14.01,2013-05-11 16:00:00,
2013-05-11 11:15:00,61.3,53.0,29.09,ENE,62,33.6,46.3,74,0.00,,FEW250,0.00,VWS V14.01,2013-05-11 16:15:00,
2013-05-11 11:30:00,61.3,53.0,29.09,NNE,28,19.5,37.6,74,0.00,,FEW250,0.00,VWS V14.01,2013-05-11 16:30:00,
2013-05-11 11:45:00,61.3,53.0,29.09,East,92,16.8,39.6,74,0.00,,FEW250,0.00,VWS V14.01,2013-05-11 16:45:00,
2013-05-11 12:00:00,61.3,53.0,29.09,East,92,28.2,39.6,74,0.00,,FEW250,0.00,VWS V14.01,2013-05-11 17:00:00,
2013-05-11 12:15:00,61.3,53.0,29.09,East,82,20.8,53.0,74,0.00,,FEW050,0.00,VWS V14.01,2013-05-11 17:15:00,
2013-05-11 12:30:00,61.3,53.0,29.09,ENE,63,19.5,38.9,74,0.00,,FEW050,0.00,VWS V14.01,2013-05-11 17:30:00,
2013-05-11 12:45:00,61.3,53.0,29.09,ESE,122,22.1,49.0,74,0.00,,FEW050,0.00,VWS V14.01,2013-05-11 17:45:00,
2013-05-11 13:00:00,61.3,53.0,29.09,NNE,24,22.1,37.6,74,0.00,,FEW050,0.00,VWS V14.01,2013-05-11 18:00:00,
2013-05-11 13:15:00,61.3,53.0,29.09,ENE,73,15.4,36.2,74,0.00,,FEW060,0.00,VWS V14.01,2013-05-11 18:15:00,
2013-05-11 13:30:00,61.3,53.0,29.09,East,92,0.0,38.9,74,0.00,,FEW060,0.00,VWS V14.01,2013-05-11 18:30:00,
2013-05-11 13:45:00,61.3,53.0,29.09,ENE,78,26.8,40.9,74,0.00,,FEW060,0.00,VWS V14.01,2013-05-11 18:45:00,
2013-05-11 14:00:00,61.3,53.0,29.09,SE,137,13.4,43.6,74,0.00,,FEW060,0.00,VWS V14.01,2013-05-11 19:00:00,
2013-05-11 14:15:00,61.3,53.0,29.09,ESE,103,26.8,42.3,74,0.00,,FEW060,0.00,VWS V14.01,2013-05-11 19:15:00,
2013-05-11 14:30:00,61.3,53.0,29.09,East,92,10.7,37.6,74,0.00,,FEW060,0.00,VWS V14.01,2013-05-11 19:30:00,
2013-05-11 14:45:00,61.3,53.0,29.09,East,99,29.5,33.6,74,0.00,,FEW060,0.00,VWS V14.01,2013-05-11 19:45:00,
2013-05-11 15:00:00,61.3,53.0,29.09,ENE,72,23.5,39.6,74,0.00,,FEW060,0.00,VWS V14.01,2013-05-11 20:00:00,
2013-05-11 15:15:00,61.3,53.0,29.09,East,89,12.1,12.1,74,0.00,,FEW070,0.00,VWS V14.01,2013-05-11 20:15:00,
2013-05-11 15:30:00,61.3,53.0,29.09,ENE,70,3.1,13.2,74,0.00,,FEW070,0.00,VWS V14.01,2013-05-11 20:30:00,
2013-05-11 15:45:00,61.3,53.0,29.09,North,5,2.7,13.0,74,0.00,,FEW070,0.00,VWS V14.01,2013-05-11 20:45:00,
2013-05-11 16:00:00,59.7,23.9,29.09,SE,131,6.9,12.1,25,0.00,,FEW070,0.00,VWS V14.01,2013-05-11 21:00:00,
2013-05-11 16:15:00,58.5,22.8,29.09,ESE,105,6.5,12.5,25,0.00,,FEW070,0.00,VWS V14.01,2013-05-11 21:15:00,
2013-05-11 16:30:00,59.2,23.4,29.09,North,0,8.3,14.1,25,0.00,,FEW070,0.00,VWS V14.01,2013-05-11 21:30:00,
2013-05-11 16:45:00,58.8,23.1,29.09,ESE,113,4.0,12.5,25,0.00,,FEW070,0.00,VWS V14.01,2013-05-11 21:45:00,
2013-05-11 17:00:00,59.0,23.2,29.09,ENE,65,10.3,13.0,25,0.00,,FEW070,0.00,VWS V14.01,2013-05-11 22:00:00,
2013-05-11 17:15:00,58.6,22.9,29.09,NE,45,11.6,13.0,25,0.00,,FEW065,0.00,VWS V14.01,2013-05-11 22:15:00,
2013-05-11 17:30:00,58.5,22.8,29.09,NE,52,6.0,13.2,25,0.00,,FEW065,0.00,VWS V14.01,2013-05-11 22:30:00,
2013-05-11 17:45:00,58.8,23.1,29.09,SSE,149,2.7,11.2,25,0.00,,FEW065,0.00,VWS V14.01,2013-05-11 22:45:00,
2013-05-11 18:00:00,58.3,22.6,29.09,East,86,5.1,8.9,25,0.00,,FEW065,0.00,VWS V14.01,2013-05-11 23:00:00,
2013-05-11 18:15:00,57.9,22.3,29.09,East,81,3.1,13.2,25,0.00,,CLR,0.00,VWS V14.01,2013-05-11 23:15:00,
2013-05-11 18:30:00,58.1,22.5,29.06,East,83,2.7,12.1,25,0.00,,CLR,0.00,VWS V14.01,2013-05-11 23:30:00,
2013-05-11 18:45:00,57.6,22.0,29.06,ENE,62,3.6,9.4,25,0.00,,CLR,0.00,VWS V14.01,2013-05-11 23:45:00,
2013-05-11 19:00:00,57.4,21.9,29.06,NE,47,2.7,10.7,25,0.00,,CLR,0.00,VWS V14.01,2013-05-12 00:00:00,
2013-05-11 19:15:00,57.0,21.6,29.09,NE,54,3.1,8.3,25,0.00,,CLR,0.00,VWS V14.01,2013-05-12 00:15:00,
2013-05-11 19:30:00,56.7,21.3,29.09,NNE,30,4.7,9.8,25,0.00,,CLR,0.00,VWS V14.01,2013-05-12 00:30:00,
2013-05-11 19:45:00,56.1,20.8,29.09,NNW,345,0.0,8.7,25,0.00,,CLR,0.00,VWS V14.01,2013-05-12 00:45:00,
2013-05-11 20:00:00,55.6,20.3,29.09,NNE,24,6.0,8.9,25,0.00,,CLR,0.00,VWS V14.01,2013-05-12 01:00:00,
2013-05-11 20:15:00,54.7,20.5,29.09,East,80,2.7,6.5,26,0.00,,FEW250,0.00,VWS V14.01,2013-05-12 01:15:00,
2013-05-11 20:30:00,53.6,19.6,29.09,ENE,75,0.0,6.0,26,0.00,,FEW250,0.00,VWS V14.01,2013-05-12 01:30:00,
2013-05-11 20:45:00,52.5,19.5,29.09,East,87,0.0,4.0,27,0.00,,FEW250,0.00,VWS V14.01,2013-05-12 01:45:00,
2013-05-11 21:00:00,51.6,18.8,29.09,SE,124,0.0,5.1,27,0.00,,FEW250,0.00,VWS V14.01,2013-05-12 02:00:00,
2013-05-11 21:15:00,50.4,17.7,29.09,North,10,0.0,3.6,27,0.00,,FEW250,0.00,VWS V14.01,2013-05-12 02:15:00,
2013-05-11 21:30:00,49.3,17.6,29.09,NE,47,0.0,0.0,28,0.00,,FEW250,0.00,VWS V14.01,2013-05-12 02:30:00,
2013-05-11 21:45:00,48.2,17.5,29.09,NE,39,0.0,3.1,29,0.00,,FEW250,0.00,VWS V14.01,2013-05-12 02:45:00,
2013-05-11 22:00:00,47.1,16.5,29.09,NE,39,0.0,0.0,29,0.00,,FEW250,0.00,VWS V14.01,2013-05-12 03:00:00,
2013-05-11 22:15:00,46.0,16.4,29.09,NE,39,0.0,0.0,30,0.00,,CLR,0.00,VWS V14.01,2013-05-12 03:15:00,
2013-05-11 22:30:00,44.6,15.9,29.09,NE,39,0.0,0.0,31,0.00,,CLR,0.00,VWS V14.01,2013-05-12 03:30:00,
2013-05-11 22:45:00,43.9,16.7,29.09,NE,39,0.0,0.0,33,0.00,,CLR,0.00,VWS V14.01,2013-05-12 03:45:00,
2013-05-11 23:00:00,43.2,16.0,29.09,NE,39,0.0,0.0,33,0.00,,CLR,0.00,VWS V14.01,2013-05-12 04:00:00,
2013-05-11 23:15:00,42.4,16.7,29.09,NE,39,0.0,0.0,35,0.00,,CLR,0.00,VWS V14.01,2013-05-12 04:15:00,
2013-05-11 23:30:00,42.1,17.1,29.09,NE,39,0.0,0.0,36,0.00,,CLR,0.00,VWS V14.01,2013-05-12 04:30:00,
2013-05-11 23:45:00,41.5,17.8,29.09,NE,39,0.0,0.0,38,0.00,,CLR,0.00,VWS V14.01,2013-05-12 04:45:00,